Time;durP1;ratioP1;P1;durP2;ratioP2;P2;SDS_P1;SDS_P2;PMS_P1;PMS_P2;Temp;Humidity;BMP_temperature;BMP_pressure;BME280_temperature;BME280_humidity;BME280_pressure;Samples;Min_cycle;Max_cycle;Signal;HPM_P1;HPM_P2
2021/05/17 00:02:25;;;;;;;68.25;25.42;;;;;;;12.55;57.41;97338.75;5044641;28;20045;-75
2021/05/17 00:04:51;;;;;;;39.28;14.55;;;;;;;12.57;57.04;97344.72;5044955;28;20120;-76
2021/05/17 00:07:17;;;;;;;32.50;11.07;;;;;;;12.60;57.54;97341.31;5036903;28;20033;-76
2021/05/17 00:09:43;;;;;;;18.67;8.57;;;;;;;12.65;57.51;97339.13;5036626;28;20071;-76
2021/05/17 00:12:11;;;;;;;19.20;8.23;;;;;;;12.71;57.54;97331.50;5040585;28;20836;-75
2021/05/17 00:14:37;;;;;;;19.08;7.32;;;;;;;12.74;57.68;97330.00;5045224;28;20552;-75
2021/05/17 00:17:03;;;;;;;17.65;6.80;;;;;;;12.75;57.48;97323.34;5045122;28;20033;-76
2021/05/17 00:19:29;;;;;;;18.17;7.70;;;;;;;12.74;57.54;97330.00;5045366;28;20024;-76
2021/05/17 00:21:55;;;;;;;17.10;7.95;;;;;;;12.72;57.48;97333.09;5058885;28;20029;-77
2021/05/17 00:24:21;;;;;;;17.05;8.07;;;;;;;12.75;57.65;97320.59;5044623;28;20028;-76
2021/05/17 00:26:48;;;;;;;21.58;8.15;;;;;;;12.76;58.00;97317.53;5042374;28;20057;-77
2021/05/17 00:29:14;;;;;;;16.02;7.90;;;;;;;12.81;57.91;97319.25;5035183;28;20031;-75
2021/05/17 00:31:42;;;;;;;18.25;7.88;;;;;;;12.86;58.31;97315.47;5036435;28;20471;-76
2021/05/17 00:34:08;;;;;;;14.05;7.15;;;;;;;12.92;58.10;97319.63;5043470;28;20413;-76
2021/05/17 00:36:35;;;;;;;15.40;7.72;;;;;;;12.99;58.18;97316.34;5045778;28;20017;-76
2021/05/17 00:39:02;;;;;;;16.23;7.68;;;;;;;13.03;58.17;97320.03;5044196;28;20020;-76
2021/05/17 00:41:28;;;;;;;14.93;7.50;;;;;;;13.04;58.00;97343.66;5044643;28;20021;-76
2021/05/17 00:43:55;;;;;;;15.20;7.28;;;;;;;13.04;57.82;97346.41;5044706;28;20025;-76
2021/05/17 00:46:23;;;;;;;16.95;7.57;;;;;;;13.00;58.22;97348.22;5044353;28;20483;-75
2021/05/17 00:48:49;;;;;;;15.45;7.43;;;;;;;12.93;57.71;97376.28;5039091;28;20021;-76
2021/05/17 00:51:16;;;;;;;11.27;5.57;;;;;;;12.87;58.22;97416.16;5035305;28;20494;-75
2021/05/17 00:53:43;;;;;;;17.25;6.65;;;;;;;12.67;58.40;97413.09;5037600;28;20025;-78
2021/05/17 00:56:09;;;;;;;18.05;7.40;;;;;;;12.50;58.78;97406.56;5044305;28;20033;-77
2021/05/17 00:58:36;;;;;;;19.63;8.18;;;;;;;12.40;59.91;97400.66;5044752;28;20048;-77
2021/05/17 01:01:04;;;;;;;14.65;7.47;;;;;;;12.22;60.83;97392.56;5045004;28;20017;-77
2021/05/17 01:03:31;;;;;;;18.35;7.07;;;;;;;12.07;60.49;97396.66;5044855;28;20079;-74
2021/05/17 01:05:59;;;;;;;17.88;7.28;;;;;;;12.01;60.37;97387.03;5044193;28;20032;-74
2021/05/17 01:08:31;;;;;;;23.75;8.43;;;;;;;12.00;60.51;97386.19;5043299;28;20025;-74
2021/05/17 01:11:05;;;;;;;21.63;9.65;;;;;;;12.02;60.73;97381.19;5035172;28;20657;-75
2021/05/17 01:13:31;;;;;;;20.63;10.40;;;;;;;12.04;60.72;97386.31;5034906;28;20090;-75
2021/05/17 01:15:58;;;;;;;15.27;7.70;;;;;;;12.06;61.03;97384.06;5042835;28;20036;-74
2021/05/17 01:18:24;;;;;;;15.38;6.72;;;;;;;12.13;61.36;97356.84;5043976;28;20024;-74
2021/05/17 01:20:52;;;;;;;15.52;6.68;;;;;;;12.16;61.79;97333.41;5044081;28;20021;-74
2021/05/17 01:25:46;;;;;;;15.90;6.68;;;;;;;12.05;61.85;97327.47;5044572;28;20029;-74
2021/05/17 01:28:19;;;;;;;11.18;5.32;;;;;;;12.06;62.23;97348.31;5045909;28;20024;-74
2021/05/17 01:30:46;;;;;;;10.13;5.00;;;;;;;12.04;62.24;97350.59;5039487;28;20028;-73
2021/05/17 01:33:12;;;;;;;12.50;5.40;;;;;;;12.07;62.43;97366.44;5034742;28;20028;-73
2021/05/17 01:35:40;;;;;;;12.63;5.53;;;;;;;12.02;62.90;97383.13;5039356;28;20036;-73
2021/05/17 01:38:07;;;;;;;12.90;4.82;;;;;;;11.89;63.54;97377.50;5043297;28;20357;-75
2021/05/17 01:40:35;;;;;;;14.02;5.30;;;;;;;11.81;62.70;97361.06;5043854;28;20028;-74
2021/05/17 01:43:03;;;;;;;11.43;5.68;;;;;;;11.76;63.25;97334.59;5043419;28;20108;-75
2021/05/17 01:45:30;;;;;;;16.52;5.70;;;;;;;11.72;63.88;97314.41;5043470;28;20052;-75
2021/05/17 01:47:58;;;;;;;13.00;5.60;;;;;;;11.63;63.69;97317.22;5045081;28;20056;-75
2021/05/17 01:50:24;;;;;;;15.23;5.68;;;;;;;11.61;64.46;97331.25;5044622;28;20129;-74
2021/05/17 01:52:51;;;;;;;8.88;5.22;;;;;;;11.69;64.53;97323.31;5034376;28;20151;-74
2021/05/17 01:55:17;;;;;;;10.45;5.70;;;;;;;11.71;64.71;97332.84;5036675;28;20045;-77
2021/05/17 01:57:43;;;;;;;15.15;6.32;;;;;;;11.69;64.00;97326.88;5040202;28;20025;-75
2021/05/17 02:00:13;;;;;;;14.20;5.10;;;;;;;11.67;64.56;97312.66;5044031;28;20043;-75
2021/05/17 02:02:39;;;;;;;11.15;4.97;;;;;;;11.67;64.43;97315.41;5043445;28;20041;-75
2021/05/17 02:05:07;;;;;;;11.75;5.00;;;;;;;11.68;64.67;97322.53;5045325;28;20421;-75
2021/05/17 02:07:33;;;;;;;10.50;5.68;;;;;;;11.70;64.55;97308.44;5049601;28;20025;-75
2021/05/17 02:10:01;;;;;;;11.98;5.22;;;;;;;11.72;64.52;97309.72;5047184;28;20118;-75
2021/05/17 02:12:31;;;;;;;13.70;6.03;;;;;;;11.74;64.47;97314.88;5042908;28;20028;-75
2021/05/17 02:14:57;;;;;;;11.98;5.43;;;;;;;11.73;64.70;97308.59;5038237;28;20484;-75
2021/05/17 02:17:24;;;;;;;13.20;5.93;;;;;;;11.76;65.21;97312.59;5038062;28;20013;-75
2021/05/17 02:19:50;;;;;;;12.48;6.78;;;;;;;11.77;65.69;97320.53;5047162;28;20017;-75
2021/05/17 02:22:18;;;;;;;15.88;7.55;;;;;;;11.77;65.45;97323.28;5047035;28;20025;-74
2021/05/17 02:24:45;;;;;;;15.40;5.82;;;;;;;11.72;64.99;97330.88;5046813;28;20021;-75
2021/05/17 02:27:12;;;;;;;11.82;5.28;;;;;;;11.71;65.29;97329.28;5046831;28;20112;-76
2021/05/17 02:29:38;;;;;;;10.38;5.10;;;;;;;11.71;65.32;97327.34;5047428;28;20084;-74
2021/05/17 02:32:04;;;;;;;10.10;5.47;;;;;;;11.74;65.03;97320.38;5048003;28;20434;-74
2021/05/17 02:34:30;;;;;;;11.18;5.55;;;;;;;11.78;65.76;97315.84;5039916;28;20025;-74
2021/05/17 02:36:57;;;;;;;13.15;5.32;;;;;;;11.85;65.45;97312.56;5038774;28;20045;-74
2021/05/17 02:39:23;;;;;;;11.43;5.70;;;;;;;11.88;65.94;97296.22;5041830;28;20025;-75
2021/05/17 02:41:50;;;;;;;11.95;6.43;;;;;;;11.92;65.26;97304.59;5046588;28;20078;-77
2021/05/17 02:44:16;;;;;;;12.15;6.18;;;;;;;11.99;65.34;97312.31;5047722;28;20032;-79
2021/05/17 02:46:43;;;;;;;8.60;5.40;;;;;;;12.01;65.17;97316.38;5046089;28;20403;-79
2021/05/17 02:49:08;;;;;;;9.40;5.88;;;;;;;12.08;65.71;97326.81;5044860;28;20036;-80
2021/05/17 02:51:34;;;;;;;15.48;6.90;;;;;;;12.06;65.85;97337.34;5064775;28;20025;-79
2021/05/17 02:53:59;;;;;;;12.27;7.80;;;;;;;12.01;65.68;97345.78;5063771;28;20020;-79
2021/05/17 02:56:36;;;;;;;12.63;6.05;;;;;;;11.99;65.44;97334.31;5056778;28;20032;-78
2021/05/17 02:59:03;;;;;;;10.18;5.78;;;;;;;12.00;65.71;97341.44;5056842;28;20537;-79
2021/05/17 03:01:39;;;;;;;9.70;4.97;;;;;;;12.01;65.19;97334.81;5063092;28;20487;-79
2021/05/17 03:04:13;;;;;;;9.00;5.30;;;;;;;12.03;65.60;97329.75;5065818;28;20028;-78
2021/05/17 03:06:52;;;;;;;11.30;5.38;;;;;;;12.05;65.41;97332.97;5065502;28;20071;-79
2021/05/17 03:09:18;;;;;;;10.88;6.40;;;;;;;12.04;65.80;97325.88;5065732;28;20102;-79
2021/05/17 03:11:47;;;;;;;12.40;6.43;;;;;;;12.01;65.96;97327.34;5061828;28;20028;-80
2021/05/17 03:14:16;;;;;;;11.77;6.85;;;;;;;12.00;65.12;97313.97;5045807;28;20124;-78
2021/05/17 03:16:49;;;;;;;13.13;6.95;;;;;;;11.97;65.71;97318.13;5041738;28;20028;-79
2021/05/17 03:19:15;;;;;;;13.65;7.43;;;;;;;11.99;66.04;97317.81;5055815;28;20028;-79
2021/05/17 03:21:43;;;;;;;14.57;7.70;;;;;;;12.01;65.64;97318.31;5061287;28;20557;-79
2021/05/17 03:24:10;;;;;;;13.98;7.43;;;;;;;12.01;65.57;97316.38;5063988;28;20066;-79
2021/05/17 03:26:37;;;;;;;13.32;7.03;;;;;;;12.06;66.04;97316.16;5064961;28;20037;-79
2021/05/17 03:29:04;;;;;;;14.30;8.07;;;;;;;12.09;65.65;97322.13;5065291;28;20027;-80
2021/05/17 03:31:29;;;;;;;10.82;6.68;;;;;;;12.12;65.65;97330.50;5060182;28;20025;-80
2021/05/17 03:33:59;;;;;;;14.20;7.82;;;;;;;12.14;66.31;97324.69;5045577;28;20090;-80
2021/05/17 03:36:25;;;;;;;;;;;;;;;12.14;65.91;97325.47;5061758;28;20032;-79
2021/05/17 03:38:50;;;;;;;15.30;10.30;;;;;;;12.15;65.91;97329.06;5055812;28;19919;-79
2021/05/17 03:41:15;;;;;;;16.20;9.75;;;;;;;12.13;66.38;97317.59;5055738;28;20043;-79
2021/05/17 03:43:41;;;;;;;14.25;8.75;;;;;;;12.13;65.94;97326.63;5064321;28;20819;-80
2021/05/17 03:46:08;;;;;;;17.85;8.85;;;;;;;12.12;66.41;97336.00;5064455;28;20111;-79
2021/05/17 03:48:41;;;;;;;17.27;9.85;;;;;;;12.17;66.06;97351.50;5065039;28;20077;-78
2021/05/17 03:51:10;;;;;;;16.55;8.73;;;;;;;12.17;66.38;97346.81;5064708;28;20035;-80
2021/05/17 03:53:36;;;;;;;19.13;11.07;;;;;;;12.17;66.15;97340.50;5072989;28;20024;-80
2021/05/17 03:56:02;;;;;;;16.80;10.65;;;;;;;12.18;66.45;97339.38;5073406;28;20497;-79
2021/05/17 03:58:27;;;;;;;18.50;11.00;;;;;;;12.18;66.49;97342.91;5071886;28;20048;-79
2021/05/17 04:00:56;;;;;;;19.58;11.93;;;;;;;12.23;66.54;97343.84;5072950;28;20115;-78
2021/05/17 04:03:22;;;;;;;18.87;11.27;;;;;;;12.31;66.86;97340.25;5073296;28;20029;-80
2021/05/17 04:13:50;;;;;;;15.68;9.95;;;;;;;12.36;66.25;97340.06;5073168;28;20051;-79
2021/05/17 04:16:16;;;;;;;15.73;9.65;;;;;;;12.46;66.62;97345.13;5071620;28;20421;-79
2021/05/17 04:18:42;;;;;;;17.13;10.10;;;;;;;12.53;66.72;97346.53;5072859;28;20065;-79
2021/05/17 04:21:07;;;;;;;14.23;9.82;;;;;;;12.60;66.70;97341.31;5072919;28;20029;-79
2021/05/17 04:23:33;;;;;;;13.63;9.75;;;;;;;12.62;66.71;97339.84;5073000;28;20179;-79
2021/05/17 04:25:58;;;;;;;16.48;10.88;;;;;;;12.67;66.77;97347.06;5072721;28;20036;-79
2021/05/17 04:28:24;;;;;;;18.73;11.88;;;;;;;12.69;66.77;97344.78;5072595;28;20025;-79
2021/05/17 04:30:49;;;;;;;18.13;12.45;;;;;;;12.74;66.64;97341.00;5073207;28;20024;-80
2021/05/17 04:33:15;;;;;;;19.45;11.18;;;;;;;12.79;66.27;97340.81;5072796;28;20025;-79
2021/05/17 04:35:40;;;;;;;16.27;10.38;;;;;;;12.83;66.57;97327.19;5072858;28;20028;-79
2021/05/17 04:38:05;;;;;;;17.45;9.80;;;;;;;12.88;66.71;97336.03;5072704;28;20031;-80
2021/05/17 04:40:31;;;;;;;15.57;10.15;;;;;;;12.90;66.31;97330.16;5072606;28;20021;-80
2021/05/17 04:42:57;;;;;;;18.83;10.38;;;;;;;12.94;66.68;97328.34;5072786;28;20025;-79
2021/05/17 04:45:24;;;;;;;16.20;10.32;;;;;;;12.97;66.21;97332.38;5072671;28;20021;-79
2021/05/17 04:47:53;;;;;;;17.00;9.85;;;;;;;12.99;66.39;97341.09;5072584;28;20051;-79
2021/05/17 04:50:19;;;;;;;19.45;11.13;;;;;;;13.02;66.71;97340.44;5072594;28;20024;-80
2021/05/17 04:52:45;;;;;;;21.23;13.43;;;;;;;13.04;66.64;97347.19;5072463;28;20491;-80
2021/05/17 04:55:10;;;;;;;23.83;14.90;;;;;;;13.05;66.76;97343.28;5072528;28;20032;-80
2021/05/17 04:57:36;;;;;;;47.70;22.67;;;;;;;13.05;66.51;97343.28;5072453;28;20032;-80
2021/05/17 05:00:05;;;;;;;36.33;18.50;;;;;;;13.06;66.50;97344.91;5072470;28;20028;-80
2021/05/17 05:02:30;;;;;;;34.38;17.75;;;;;;;13.09;66.46;97354.41;5072281;28;20122;-80
2021/05/17 05:04:56;;;;;;;38.20;18.83;;;;;;;13.10;66.53;97358.78;5072137;28;20050;-80
2021/05/17 05:07:21;;;;;;;30.30;15.05;;;;;;;13.08;66.68;97361.88;5072635;28;20039;-79
2021/05/17 05:09:46;;;;;;;38.63;16.90;;;;;;;13.09;66.45;97363.50;5070891;28;20054;-80
2021/05/17 05:12:12;;;;;;;63.92;25.92;;;;;;;13.09;66.67;97355.25;5070941;28;20029;-80
2021/05/17 05:14:37;;;;;;;33.70;17.27;;;;;;;13.09;66.69;97359.91;5072183;28;20044;-80
2021/05/17 05:17:03;;;;;;;27.75;15.98;;;;;;;13.06;66.57;97355.91;5070992;28;20020;-79
2021/05/17 05:19:28;;;;;;;28.73;19.73;;;;;;;13.09;66.71;97352.47;5072204;28;20028;-79
2021/05/17 05:21:53;;;;;;;31.02;22.08;;;;;;;13.09;66.77;97369.00;5072011;28;20459;-80
2021/05/17 05:24:19;;;;;;;36.35;29.88;;;;;;;13.09;66.49;97371.75;5072045;28;20055;-80
2021/05/17 05:34:43;;;;;;;25.83;16.73;;;;;;;13.18;66.91;97371.66;5072121;28;20067;-79
2021/05/17 05:37:09;;;;;;;24.90;14.25;;;;;;;13.23;67.04;97360.44;5072081;28;20169;-80
2021/05/17 05:39:34;;;;;;;26.55;15.05;;;;;;;13.30;67.05;97368.13;5071942;28;20033;-80
2021/05/17 05:42:00;;;;;;;22.35;13.85;;;;;;;13.35;66.85;97365.16;5075808;28;20455;-80
2021/05/17 05:44:25;;;;;;;22.25;13.15;;;;;;;13.38;66.91;97360.94;5075967;28;20029;-79
2021/05/17 05:46:50;;;;;;;23.02;12.43;;;;;;;13.42;66.82;97359.13;5074469;28;20028;-80
2021/05/17 05:49:16;;;;;;;18.67;11.70;;;;;;;13.45;66.86;97363.94;5075928;28;20066;-80
2021/05/17 05:51:41;;;;;;;20.17;12.48;;;;;;;13.51;67.04;97357.06;5075696;28;20028;-80
2021/05/17 05:54:07;;;;;;;20.55;12.35;;;;;;;13.55;66.91;97346.97;5075701;28;20100;-80
2021/05/17 05:56:32;;;;;;;19.10;11.80;;;;;;;13.58;66.71;97356.50;5075597;28;20032;-80
2021/05/17 05:58:58;;;;;;;23.65;12.50;;;;;;;13.60;66.99;97343.19;5075836;28;20021;-80
2021/05/17 06:01:23;;;;;;;21.48;12.32;;;;;;;13.65;66.91;97350.41;5074006;28;20552;-80
2021/05/17 06:03:49;;;;;;;21.77;13.05;;;;;;;13.72;66.84;97350.66;5075518;28;20029;-79
2021/05/17 06:06:15;;;;;;;20.83;12.20;;;;;;;13.79;66.99;97350.06;5075274;28;20028;-81
2021/05/17 06:08:43;;;;;;;21.42;11.90;;;;;;;13.82;67.03;97346.63;5075476;28;20032;-80
2021/05/17 06:11:10;;;;;;;17.45;11.98;;;;;;;13.86;66.38;97349.50;5075293;28;20048;-79
2021/05/17 06:13:37;;;;;;;21.33;12.48;;;;;;;13.88;66.91;97356.28;5075244;28;20029;-79
2021/05/17 06:16:06;;;;;;;21.25;12.73;;;;;;;13.90;66.44;97353.97;5075385;28;20178;-80
2021/05/17 06:18:32;;;;;;;20.45;13.13;;;;;;;13.91;66.72;97358.34;5075487;28;20063;-80
2021/05/17 06:21:00;;;;;;;20.65;12.65;;;;;;;13.92;66.64;97365.47;5074972;28;20440;-80
2021/05/17 06:23:25;;;;;;;22.58;13.63;;;;;;;13.89;66.84;97360.63;5075148;28;20036;-80
2021/05/17 06:25:51;;;;;;;19.45;12.00;;;;;;;13.87;66.45;97346.38;5075106;28;20039;-80
2021/05/17 06:28:21;;;;;;;20.50;12.68;;;;;;;13.89;66.66;97344.09;5074969;28;20024;-80
2021/05/17 06:30:51;;;;;;;18.65;12.05;;;;;;;13.90;66.71;97356.72;5075000;28;20029;-80
2021/05/17 06:33:18;;;;;;;20.35;12.55;;;;;;;13.91;66.87;97347.31;5073715;28;20025;-80
2021/05/17 06:35:45;;;;;;;19.98;12.32;;;;;;;13.90;66.51;97348.47;5074806;28;20032;-80
2021/05/17 06:38:14;;;;;;;19.88;12.73;;;;;;;13.91;66.54;97347.31;5073640;28;20533;-80
2021/05/17 06:40:40;;;;;;;25.92;17.05;;;;;;;13.93;66.63;97335.94;5074956;28;20484;-81
2021/05/17 06:43:06;;;;;;;31.63;24.27;;;;;;;13.95;66.68;97337.19;5074934;28;20036;-81
2021/05/17 06:45:32;;;;;;;100.63;58.78;;;;;;;13.95;66.55;97331.69;5074811;28;20056;-80
2021/05/17 06:47:59;;;;;;;198.48;88.50;;;;;;;13.93;66.69;97339.50;5074985;28;20089;-80
2021/05/17 06:50:25;;;;;;;62.20;27.88;;;;;;;13.88;66.53;97336.97;5074903;28;20024;-80
2021/05/17 06:52:51;;;;;;;112.78;44.03;;;;;;;13.88;66.49;97330.66;5074295;28;20111;-80
2021/05/17 06:55:20;;;;;;;156.48;60.53;;;;;;;13.87;66.78;97332.59;5074606;28;20089;-80
2021/05/17 07:00:29;;;;;;;53.55;26.80;;;;;;;13.87;66.85;97338.13;5075041;28;20032;-80
2021/05/17 07:02:56;;;;;;;51.70;27.38;;;;;;;13.87;66.60;97329.03;5074603;28;20045;-80
2021/05/17 07:05:23;;;;;;;30.25;20.48;;;;;;;13.89;66.83;97323.97;5074590;28;20021;-79
2021/05/17 07:11:34;;;;;;;27.13;16.58;;;;;;;13.89;66.76;97326.75;5074304;28;20111;-82
2021/05/17 07:13:27;;;;;;;17.38;10.43;;;;;;;13.90;66.72;97329.16;5074577;28;20089;-81
2021/05/17 07:15:53;;;;;;;17.38;11.43;;;;;;;13.90;66.85;97328.34;5075214;28;20064;-83
2021/05/17 07:18:18;;;;;;;15.35;9.70;;;;;;;13.90;67.04;97318.13;5062148;28;20470;-83
2021/05/17 07:25:55;;;;;;;18.45;11.48;;;;;;;14.01;67.12;97326.72;5072212;28;20556;-77
2021/05/17 07:28:21;;;;;;;22.45;14.00;;;;;;;14.05;66.94;97329.63;5073257;28;20024;-77
2021/05/17 07:30:47;;;;;;;22.83;15.65;;;;;;;14.05;67.08;97321.34;5072648;28;20029;-78
2021/05/17 07:33:14;;;;;;;24.98;12.90;;;;;;;14.08;66.87;97326.13;5072548;28;20024;-78
2021/05/17 07:35:39;;;;;;;26.55;14.45;;;;;;;14.09;66.91;97323.06;5068108;28;20470;-79
2021/05/17 07:38:05;;;;;;;18.60;11.63;;;;;;;14.12;66.95;97324.28;5071699;28;20101;-78
2021/05/17 07:40:30;;;;;;;17.73;10.18;;;;;;;14.15;66.87;97320.84;5070922;28;20027;-77
2021/05/17 07:42:56;;;;;;;20.70;10.23;;;;;;;14.17;66.95;97320.50;5072075;28;20023;-80
2021/05/17 07:45:22;;;;;;;23.85;11.80;;;;;;;14.20;66.89;97314.31;5072470;28;20076;-77
2021/05/17 07:47:48;;;;;;;21.48;11.55;;;;;;;14.21;66.94;97318.66;5068114;28;20074;-78
2021/05/17 07:50:13;;;;;;;19.65;11.15;;;;;;;14.20;66.82;97319.81;5071140;28;20020;-76
2021/05/17 07:52:38;;;;;;;18.38;10.52;;;;;;;14.23;67.14;97324.63;5071807;28;20017;-76
2021/05/17 07:55:05;;;;;;;18.08;10.25;;;;;;;14.28;67.15;97316.09;5071791;28;20024;-75
2021/05/17 07:57:30;;;;;;;19.83;10.35;;;;;;;14.31;66.84;97320.91;5072679;28;20424;-76
2021/05/17 07:59:56;;;;;;;17.00;8.07;;;;;;;14.31;66.83;97311.84;5072577;28;20021;-75
2021/05/17 08:02:21;;;;;;;12.40;6.93;;;;;;;14.32;66.78;97317.00;5071359;28;20075;-74
2021/05/17 08:04:50;;;;;;;10.57;6.93;;;;;;;14.35;66.77;97315.53;5069503;28;20017;-74
2021/05/17 08:07:16;;;;;;;13.38;8.00;;;;;;;14.35;66.65;97321.84;5071783;28;20090;-75
2021/05/17 08:09:42;;;;;;;13.00;7.70;;;;;;;14.34;66.56;97322.19;5072125;28;20017;-76
2021/05/17 08:12:09;;;;;;;11.85;7.13;;;;;;;14.33;66.55;97317.81;5071961;28;20059;-76
2021/05/17 08:14:34;;;;;;;15.10;8.88;;;;;;;14.37;66.62;97318.75;5067382;28;20724;-76
2021/05/17 08:17:02;;;;;;;16.92;9.55;;;;;;;14.42;66.99;97316.53;5070281;28;20046;-75
2021/05/17 08:19:28;;;;;;;14.02;8.43;;;;;;;14.44;66.52;97316.19;5069212;28;20037;-74
2021/05/17 08:21:54;;;;;;;15.70;8.75;;;;;;;14.42;66.35;97318.50;5070213;28;20035;-75
2021/05/17 08:24:19;;;;;;;12.50;7.55;;;;;;;14.38;66.37;97312.06;5069033;28;20103;-76
2021/05/17 08:26:45;;;;;;;22.90;15.85;;;;;;;14.33;66.30;97318.63;5069033;28;20032;-77
2021/05/17 08:29:10;;;;;;;19.75;12.52;;;;;;;14.34;66.62;97320.22;5071609;28;20060;-76
2021/05/17 08:31:36;;;;;;;17.83;11.18;;;;;;;14.35;66.37;97326.56;5069700;28;20055;-75
2021/05/17 08:34:02;;;;;;;14.25;9.80;;;;;;;14.39;66.43;97317.22;5070771;28;20028;-76
2021/05/17 08:36:27;;;;;;;13.95;7.70;;;;;;;14.48;66.67;97322.59;5070898;28;20054;-76
2021/05/17 08:38:52;;;;;;;13.70;7.63;;;;;;;14.54;66.99;97323.94;5067508;28;20059;-76
2021/05/17 08:41:19;;;;;;;16.67;7.90;;;;;;;14.62;66.84;97329.69;5069788;28;20035;-75
2021/05/17 08:43:44;;;;;;;16.90;9.32;;;;;;;14.69;67.03;97321.63;5070705;28;20032;-76
2021/05/17 08:46:11;;;;;;;19.17;12.02;;;;;;;14.76;66.93;97321.84;5069945;28;20398;-75
2021/05/17 08:48:46;;;;;;;18.30;10.13;;;;;;;14.80;66.63;97321.94;5070428;28;20036;-75
2021/05/17 08:51:13;;;;;;;16.98;8.88;;;;;;;14.83;66.75;97332.25;5068483;28;20028;-75
2021/05/17 08:53:38;;;;;;;14.02;8.88;;;;;;;14.84;66.79;97328.34;5070269;28;20025;-74
2021/05/17 08:56:05;;;;;;;16.33;9.90;;;;;;;14.89;66.81;97328.09;5071221;28;20718;-76
2021/05/17 08:58:30;;;;;;;16.65;9.43;;;;;;;14.93;66.93;97325.41;5071401;28;20020;-76
2021/05/17 09:00:55;;;;;;;17.10;9.40;;;;;;;14.92;66.64;97332.91;5072198;28;20036;-75
2021/05/17 09:03:21;;;;;;;17.65;9.63;;;;;;;14.92;66.21;97332.91;5069415;28;20241;-74
2021/05/17 09:05:47;;;;;;;17.17;10.48;;;;;;;14.92;66.40;97323.81;5071220;28;20021;-75
2021/05/17 09:08:15;;;;;;;53.35;23.80;;;;;;;14.87;66.25;97327.66;5070851;28;20174;-75
2021/05/17 09:10:41;;;;;;;85.18;33.80;;;;;;;14.88;66.20;97330.03;5064439;28;20085;-75
2021/05/17 09:13:14;;;;;;;36.38;18.38;;;;;;;14.91;66.58;97330.50;5068931;28;20392;-77
2021/05/17 09:15:47;;;;;;;74.20;29.80;;;;;;;14.94;66.80;97330.59;5074800;28;20525;-76
2021/05/17 09:18:14;;;;;;;75.50;32.65;;;;;;;15.01;66.52;97330.00;5076061;28;20035;-76
2021/05/17 09:20:45;;;;;;;64.45;32.15;;;;;;;15.08;66.58;97324.66;5073633;28;20116;-75
2021/05/17 09:23:19;;;;;;;31.80;19.27;;;;;;;15.14;66.42;97328.78;5075293;28;20166;-73
2021/05/17 09:26:22;;;;;;;27.80;16.50;;;;;;;15.18;66.45;97323.34;5075391;28;20113;-73
2021/05/17 09:28:51;;;;;;;25.35;16.02;;;;;;;15.18;66.45;97318.63;5073958;28;20020;-73
2021/05/17 09:31:22;;;;;;;21.08;13.13;;;;;;;15.22;66.74;97317.91;5072091;28;20048;-74
2021/05/17 09:33:50;;;;;;;27.15;14.68;;;;;;;15.26;66.77;97314.06;5075450;28;20032;-74
2021/05/17 09:36:27;;;;;;;25.70;14.27;;;;;;;15.31;66.63;97318.53;5074298;28;20043;-73
2021/05/17 09:39:08;;;;;;;23.15;13.68;;;;;;;15.24;66.52;97310.88;5071361;28;20050;-74
2021/05/17 09:41:44;;;;;;;20.35;12.25;;;;;;;15.16;66.64;97315.41;5073228;28;20033;-74
2021/05/17 09:44:31;;;;;;;23.80;11.45;;;;;;;15.14;66.43;97323.25;5064896;28;20037;-74
2021/05/17 09:47:02;;;;;;;23.45;14.13;;;;;;;15.12;66.50;97319.22;5072616;28;20284;-74
2021/05/17 09:49:40;;;;;;;42.40;24.30;;;;;;;15.10;66.27;97321.53;5072776;28;20039;-73
2021/05/17 09:52:12;;;;;;;33.47;21.33;;;;;;;15.06;66.11;97309.63;5072232;28;20367;-74
2021/05/17 09:54:50;;;;;;;32.80;21.35;;;;;;;15.06;66.42;97304.88;5073299;28;20024;-76
2021/05/17 09:57:20;;;;;;;24.48;18.65;;;;;;;15.10;66.73;97304.97;5073188;28;20557;-76
2021/05/17 09:59:47;;;;;;;21.88;11.95;;;;;;;15.18;66.68;97306.75;5073849;28;20367;-75
2021/05/17 10:02:35;;;;;;;18.75;11.30;;;;;;;15.20;66.31;97298.13;5068567;28;20115;-74
2021/05/17 10:05:14;;;;;;;22.23;11.80;;;;;;;15.19;66.33;97305.59;5071184;28;20028;-74
2021/05/17 10:07:40;;;;;;;22.20;11.52;;;;;;;15.17;66.59;97302.41;5070130;28;20036;-73
2021/05/17 10:10:06;;;;;;;21.65;11.07;;;;;;;15.21;66.60;97308.03;5074686;28;20495;-74
2021/05/17 10:12:32;;;;;;;25.92;14.38;;;;;;;15.20;66.13;97295.38;5070676;28;20067;-74
2021/05/17 10:14:58;;;;;;;25.88;16.00;;;;;;;15.17;66.02;97291.34;5072076;28;20057;-73
2021/05/17 10:17:24;;;;;;;23.73;13.32;;;;;;;15.17;66.25;97300.44;5073325;28;20036;-73
2021/05/17 10:19:50;;;;;;;23.77;13.90;;;;;;;15.21;66.43;97296.97;5073290;28;20025;-73
2021/05/17 10:22:16;;;;;;;21.77;11.80;;;;;;;15.21;66.24;97292.25;5072533;28;20032;-72
2021/05/17 10:24:41;;;;;;;22.55;11.48;;;;;;;15.24;65.97;97287.97;5071643;28;20028;-74
2021/05/17 10:27:08;;;;;;;22.23;11.30;;;;;;;15.26;66.20;97296.72;5068299;28;20426;-74
2021/05/17 10:29:36;;;;;;;18.95;10.63;;;;;;;15.24;65.86;97297.06;5073694;28;20024;-76
2021/05/17 10:32:04;;;;;;;20.35;10.80;;;;;;;15.21;66.21;97294.22;5072170;28;20025;-75
2021/05/17 10:34:30;;;;;;;19.10;11.25;;;;;;;15.14;65.49;97292.88;5072701;28;20105;-74
2021/05/17 10:37:01;;;;;;;17.15;10.65;;;;;;;15.15;65.75;97293.66;5072088;28;20268;-73
2021/05/17 10:39:43;;;;;;;10.27;5.88;;;;;;;15.15;65.75;97288.94;5072512;28;20028;-75
2021/05/17 10:48:12;;;;;;;24.20;12.23;;;;;;;15.14;65.32;97294.81;5054797;28;20467;-74
2021/05/17 10:50:39;;;;;;;32.97;18.35;;;;;;;15.13;65.62;97294.03;5071358;28;20029;-75
2021/05/17 10:53:05;;;;;;;18.70;9.48;;;;;;;15.06;65.52;97298.56;5072482;28;20060;-73
2021/05/17 10:55:34;;;;;;;22.38;9.48;;;;;;;14.99;65.28;97294.47;5071269;28;20074;-73
2021/05/17 11:00:34;;;;;;;19.58;11.93;;;;;;;14.98;65.60;97286.53;5071661;28;20040;-74
2021/05/17 11:03:20;;;;;;;6.80;4.10;;;;;;;15.00;65.43;97295.25;5069672;28;20061;-75
2021/05/17 11:05:48;;;;;;;12.20;6.78;;;;;;;15.00;65.81;97298.00;5069866;28;20071;-74
2021/05/17 11:08:15;;;;;;;18.63;9.60;;;;;;;15.02;65.40;97292.94;5073907;28;20056;-75
2021/05/17 11:10:50;;;;;;;11.75;6.32;;;;;;;15.04;65.32;97296.16;5071141;28;20073;-76
2021/05/17 11:13:18;;;;;;;15.40;7.55;;;;;;;15.02;65.67;97293.75;5071897;28;20024;-75
2021/05/17 11:16:03;;;;;;;14.48;6.75;;;;;;;15.01;65.55;97291.34;5072000;28;20104;-75
2021/05/17 11:18:39;;;;;;;21.17;12.70;;;;;;;14.94;65.15;97283.69;5074817;28;20432;-74
2021/05/17 11:21:13;;;;;;;10.35;4.68;;;;;;;14.86;65.14;97290.16;5071230;28;20028;-76
2021/05/17 11:23:38;;;;;;;6.78;3.97;;;;;;;14.78;65.15;97299.41;5067865;28;20025;-75
2021/05/17 11:26:12;;;;;;;6.88;3.38;;;;;;;14.74;65.14;97291.81;5070870;28;20099;-75
2021/05/17 11:28:38;;;;;;;30.58;15.30;;;;;;;14.72;64.80;97290.56;5070744;28;20020;-75
2021/05/17 11:31:05;;;;;;;37.80;22.45;;;;;;;14.74;65.11;97296.56;5071617;28;20110;-75
2021/05/17 11:33:48;;;;;;;10.93;4.68;;;;;;;14.72;65.26;97291.38;5071751;28;20090;-75
2021/05/17 11:36:42;;;;;;;12.32;7.88;;;;;;;14.61;65.09;97290.25;5071495;28;20037;-76
2021/05/17 11:39:07;;;;;;;14.00;9.30;;;;;;;14.55;65.52;97292.44;5068421;28;20033;-75
2021/05/17 11:41:45;;;;;;;16.50;13.05;;;;;;;14.55;65.49;97297.97;5069709;28;20066;-73
2021/05/17 11:44:39;;;;;;;18.30;15.52;;;;;;;14.55;65.41;97297.19;5066448;28;20134;-76
2021/05/17 11:47:11;;;;;;;21.85;15.40;;;;;;;14.59;65.72;97296.13;5069473;28;20021;-77
2021/05/17 11:49:38;;;;;;;23.77;16.30;;;;;;;14.66;66.03;97291.94;5069027;28;20028;-75
2021/05/17 11:52:08;;;;;;;12.80;6.60;;;;;;;14.70;65.96;97293.66;5068483;28;20158;-75
2021/05/17 11:54:49;;;;;;;11.65;7.40;;;;;;;14.71;65.66;97288.97;5067751;28;20037;-75
2021/05/17 11:57:15;;;;;;;8.30;5.70;;;;;;;14.72;65.63;97296.09;5067344;28;20028;-76
2021/05/17 11:59:41;;;;;;;8.20;4.07;;;;;;;14.78;65.71;97299.41;5070991;28;20035;-75
2021/05/17 12:02:11;;;;;;;9.25;5.55;;;;;;;14.81;65.91;97301.44;5070336;28;20040;-74
2021/05/17 12:04:41;;;;;;;32.28;13.10;;;;;;;14.83;65.71;97299.97;5071120;28;20030;-75